createdAt,value
2022-08-23T00:01:45.789Z,85.36
2022-08-23T00:04:18.155Z,85.49
2022-08-23T00:06:52.577Z,85.54
2022-08-23T00:09:22.500Z,85.63
2022-08-23T00:11:52.678Z,85.47
2022-08-23T00:14:24.704Z,85.37
2022-08-23T00:16:54.211Z,85.42
2022-08-23T00:19:24.084Z,85.63
2022-08-23T00:21:57.126Z,85.52
2022-08-23T00:24:27.499Z,85.62
2022-08-23T00:26:59.728Z,85.56
2022-08-23T00:29:31.320Z,85.44
2022-08-23T00:31:59.940Z,85.31
2022-08-23T00:34:28.143Z,85.25
2022-08-23T00:36:56.770Z,85.33
2022-08-23T00:39:26.185Z,85.32
2022-08-23T00:41:59.824Z,85.34
2022-08-23T00:44:52.176Z,85.26
2022-08-23T00:47:40.729Z,85.33
2022-08-23T00:50:23.402Z,85.39
2022-08-23T00:53:07.965Z,85.40
2022-08-23T00:55:38.469Z,85.21
2022-08-23T00:58:07.922Z,85.21
2022-08-23T01:00:36.265Z,85.22
2022-08-23T01:03:07.970Z,85.21
2022-08-23T01:05:47.303Z,85.27
2022-08-23T01:08:15.877Z,85.29
2022-08-23T01:10:50.017Z,85.13
2022-08-23T01:13:29.423Z,85.23
2022-08-23T01:16:05.221Z,85.26
2022-08-23T01:18:33.891Z,85.17
2022-08-23T01:21:10.512Z,85.23
2022-08-23T01:23:43.555Z,85.23
2022-08-23T01:26:13.595Z,85.28
2022-08-23T01:28:45.873Z,85.16
2022-08-23T01:31:18.727Z,85.27
2022-08-23T01:33:58.317Z,85.40
2022-08-23T01:36:26.745Z,85.51
2022-08-23T01:38:55.440Z,85.49
2022-08-23T01:41:24.242Z,85.56
2022-08-23T01:43:52.369Z,85.56
2022-08-23T01:46:24.335Z,85.56
2022-08-23T01:48:54.954Z,85.36
2022-08-23T01:51:25.000Z,85.30
2022-08-23T01:53:54.313Z,85.46
2022-08-23T01:56:28.107Z,85.36
2022-08-23T01:59:11.740Z,85.43
2022-08-23T02:01:49.335Z,85.21
2022-08-23T02:04:21.667Z,85.21
2022-08-23T02:06:49.253Z,85.19
2022-08-23T02:09:22.756Z,85.31
2022-08-23T02:11:57.468Z,85.22
2022-08-23T02:14:34.141Z,85.22
2022-08-23T02:17:08.621Z,85.14
2022-08-23T02:19:38.385Z,85.00
2022-08-23T02:22:08.320Z,85.05
2022-08-23T02:24:40.520Z,85.14
2022-08-23T02:27:09.317Z,85.01
2022-08-23T02:29:40.077Z,85.14
2022-08-23T02:32:12.532Z,85.13
2022-08-23T02:34:41.856Z,85.32
2022-08-23T02:37:11.951Z,85.37
2022-08-23T02:39:41.232Z,85.43
2022-08-23T02:42:11.682Z,85.55
2022-08-23T02:44:42.073Z,85.43
2022-08-23T02:47:11.766Z,85.21
2022-08-23T02:49:42.064Z,85.10
2022-08-23T02:52:10.244Z,85.14
2022-08-23T02:54:38.855Z,85.29
2022-08-23T02:57:07.123Z,85.35
2022-08-23T02:59:35.343Z,85.38
2022-08-23T03:02:03.667Z,85.37
2022-08-23T03:04:36.447Z,85.19
2022-08-23T03:07:06.163Z,85.20
2022-08-23T03:09:35.433Z,84.87
2022-08-23T03:12:04.332Z,85.02
2022-08-23T03:14:34.494Z,84.64
2022-08-23T03:17:07.133Z,84.95
2022-08-23T03:19:35.390Z,85.18
2022-08-23T03:22:03.447Z,85.37
2022-08-23T03:24:31.908Z,85.56
2022-08-23T03:27:01.716Z,85.60
2022-08-23T03:29:31.276Z,85.70
2022-08-23T03:32:04.254Z,85.65
2022-08-23T03:34:38.269Z,85.47
2022-08-23T03:37:08.232Z,85.63
2022-08-23T03:39:37.372Z,85.64
2022-08-23T03:42:07.313Z,85.86
2022-08-23T03:44:35.821Z,85.94
2022-08-23T03:47:05.728Z,85.93
2022-08-23T03:49:34.763Z,85.89
2022-08-23T03:52:05.584Z,86.05
2022-08-23T03:54:34.269Z,86.00
2022-08-23T03:57:06.556Z,85.92
2022-08-23T03:59:38.222Z,85.98
2022-08-23T04:02:09.059Z,86.05
2022-08-23T04:04:37.417Z,86.26
2022-08-23T04:07:27.858Z,86.02
2022-08-23T04:09:57.717Z,86.37
2022-08-23T04:12:27.934Z,86.50
2022-08-23T04:14:56.743Z,86.32
2022-08-23T04:17:25.378Z,86.26
2022-08-23T04:19:54.335Z,86.37
2022-08-23T04:22:23.619Z,86.36
2022-08-23T04:24:51.923Z,86.18
2022-08-23T04:27:21.231Z,86.51
2022-08-23T04:29:49.685Z,86.46
2022-08-23T04:32:28.237Z,86.23
2022-08-23T04:34:57.813Z,86.02
2022-08-23T04:37:27.441Z,85.86
2022-08-23T04:40:13.942Z,86.05
2022-08-23T04:42:44.112Z,86.19
2022-08-23T04:45:13.518Z,86.52
2022-08-23T04:47:45.000Z,86.83
2022-08-23T04:50:13.494Z,86.72
2022-08-23T04:53:00.148Z,86.92
2022-08-23T04:55:29.067Z,86.92
2022-08-23T04:58:07.769Z,86.73
2022-08-23T05:00:42.909Z,86.79
2022-08-23T05:03:11.644Z,86.74
2022-08-23T05:05:41.203Z,86.79
2022-08-23T05:08:09.699Z,87.03
2022-08-23T05:10:42.634Z,87.14
2022-08-23T05:13:11.333Z,87.17
2022-08-23T05:15:39.641Z,87.39
2022-08-23T05:18:08.073Z,87.47
2022-08-23T05:20:37.899Z,87.56
2022-08-23T05:23:06.451Z,87.36
2022-08-23T05:25:49.075Z,87.28
2022-08-23T05:28:28.210Z,87.24
2022-08-23T05:30:59.973Z,87.32
2022-08-23T05:33:34.037Z,87.19
2022-08-23T05:36:03.282Z,87.18
2022-08-23T05:38:31.982Z,87.38
2022-08-23T05:41:01.673Z,87.31
2022-08-23T05:43:34.891Z,87.35
2022-08-23T05:46:05.669Z,87.52
2022-08-23T05:48:40.129Z,87.29
2022-08-23T05:51:11.989Z,87.37
2022-08-23T05:53:40.987Z,87.54
2022-08-23T05:56:12.158Z,87.54
2022-08-23T05:58:52.127Z,87.26
2022-08-23T06:01:28.661Z,87.36
2022-08-23T06:04:01.067Z,87.47
2022-08-23T06:06:34.978Z,87.66
2022-08-23T06:09:08.652Z,87.67
2022-08-23T06:11:37.989Z,87.89
2022-08-23T06:14:08.961Z,87.83
2022-08-23T06:16:42.976Z,87.75
2022-08-23T06:19:14.894Z,87.56
2022-08-23T06:21:48.735Z,87.64
2022-08-23T06:24:23.754Z,87.65
2022-08-23T06:27:03.070Z,87.81
2022-08-23T06:29:31.445Z,87.96
2022-08-23T06:32:18.641Z,88.07
2022-08-23T06:35:31.419Z,87.70
2022-08-23T06:38:04.230Z,87.87
2022-08-23T06:40:51.337Z,87.81
2022-08-23T06:43:34.799Z,87.61
2022-08-23T06:46:11.822Z,87.44
2022-08-23T06:48:41.950Z,87.15
2022-08-23T06:51:15.049Z,87.04
2022-08-23T06:53:58.256Z,86.58
2022-08-23T06:56:56.879Z,86.58
2022-08-23T06:59:34.140Z,86.08
2022-08-23T07:02:16.394Z,86.06
2022-08-23T07:05:00.152Z,86.29
2022-08-23T07:07:47.010Z,86.00
2022-08-23T07:10:16.399Z,86.27
2022-08-23T07:12:45.351Z,86.54
2022-08-23T07:15:14.572Z,86.23
2022-08-23T07:17:47.300Z,85.77
2022-08-23T07:20:15.835Z,85.74
2022-08-23T07:22:47.762Z,84.94
2022-08-23T07:25:17.216Z,85.21
2022-08-23T07:27:50.555Z,84.34
2022-08-23T07:30:21.668Z,83.81
2022-08-23T07:32:51.432Z,83.96
2022-08-23T07:35:23.640Z,83.79
2022-08-23T07:37:57.038Z,83.33
2022-08-23T07:40:28.587Z,82.97
2022-08-23T07:42:59.570Z,82.41
2022-08-23T07:45:30.844Z,81.63
2022-08-23T07:48:02.823Z,81.81
2022-08-23T07:50:37.359Z,81.42
2022-08-23T07:53:31.790Z,81.71
2022-08-23T07:56:09.282Z,81.77
2022-08-23T07:58:58.443Z,82.06
2022-08-23T08:01:56.711Z,81.95
2022-08-23T08:04:26.404Z,81.36
2022-08-23T08:07:17.661Z,81.22
2022-08-23T08:09:46.694Z,81.22
2022-08-23T08:12:16.510Z,80.90
2022-08-23T08:14:48.292Z,80.97
2022-08-23T08:17:18.646Z,81.02
2022-08-23T08:20:27.433Z,80.22
2022-08-23T08:23:22.770Z,80.26
2022-08-23T08:26:12.278Z,80.17
2022-08-23T08:28:48.046Z,80.64
2022-08-23T08:31:18.183Z,80.39
2022-08-23T08:33:46.755Z,79.10
2022-08-23T08:36:31.387Z,79.54
2022-08-23T08:39:00.990Z,79.37
2022-08-23T08:41:45.027Z,78.42
2022-08-23T08:44:25.336Z,76.35
2022-08-23T08:46:59.159Z,76.30
2022-08-23T08:49:36.711Z,76.06
2022-08-23T08:52:15.025Z,76.44
2022-08-23T08:54:48.286Z,77.12
2022-08-23T08:57:25.270Z,77.50
2022-08-23T09:00:00.419Z,77.81
2022-08-23T09:02:35.146Z,77.70
2022-08-23T09:05:17.375Z,77.49
2022-08-23T09:08:00.726Z,77.25
2022-08-23T09:10:58.625Z,77.18
2022-08-23T09:13:56.951Z,76.24
2022-08-23T09:16:39.213Z,75.94
2022-08-23T09:19:09.313Z,76.46
2022-08-23T09:21:45.603Z,76.98
2022-08-23T09:24:14.847Z,77.49
2022-08-23T09:27:00.389Z,77.07
2022-08-23T09:29:31.490Z,77.20
2022-08-23T09:32:02.800Z,77.42
2022-08-23T09:34:43.208Z,76.86
2022-08-23T09:37:19.251Z,76.89
2022-08-23T09:40:12.561Z,77.03
2022-08-23T09:42:41.088Z,76.88
2022-08-23T09:45:33.102Z,76.17
2022-08-23T09:48:06.384Z,76.05
2022-08-23T09:50:41.641Z,75.22
2022-08-23T09:53:14.558Z,75.21
2022-08-23T09:55:48.298Z,75.20
2022-08-23T09:58:24.432Z,74.89
2022-08-23T10:01:12.930Z,74.40
2022-08-23T10:03:43.574Z,74.35
2022-08-23T10:06:33.422Z,74.59
2022-08-23T10:09:07.152Z,74.23
2022-08-23T10:11:40.059Z,74.13
2022-08-23T10:14:09.670Z,74.22
2022-08-23T10:16:52.584Z,73.74
2022-08-23T10:19:28.617Z,72.59
2022-08-23T10:22:03.808Z,72.69
2022-08-23T10:24:43.220Z,72.94
2022-08-23T10:27:46.016Z,72.77
2022-08-23T10:30:16.596Z,72.16
2022-08-23T10:33:00.245Z,72.24
2022-08-23T10:35:38.505Z,72.34
2022-08-23T10:38:40.390Z,72.02
2022-08-23T10:41:24.553Z,71.73
2022-08-23T10:44:08.599Z,70.85
2022-08-23T10:46:44.592Z,70.34
2022-08-23T10:49:14.990Z,70.48
2022-08-23T10:51:51.889Z,71.03
2022-08-23T10:54:34.584Z,71.48
2022-08-23T10:57:04.425Z,70.28
2022-08-23T10:59:36.585Z,69.73
2022-08-23T11:02:18.984Z,69.13
2022-08-23T11:04:56.228Z,69.03
2022-08-23T11:07:33.546Z,68.54
2022-08-23T11:10:16.960Z,69.04
2022-08-23T11:12:54.724Z,68.82
2022-08-23T11:15:37.796Z,69.93
2022-08-23T11:18:39.442Z,69.04
2022-08-23T11:21:32.856Z,68.61
2022-08-23T11:24:29.673Z,68.49
2022-08-23T11:27:06.371Z,68.51
2022-08-23T11:29:41.387Z,68.08
2022-08-23T11:32:42.531Z,67.81
2022-08-23T11:35:36.491Z,66.97
2022-08-23T11:38:06.581Z,66.66
2022-08-23T11:40:58.014Z,67.08
2022-08-23T11:43:34.476Z,67.09
2022-08-23T11:46:30.522Z,67.44
2022-08-23T11:49:30.636Z,67.25
2022-08-23T11:52:10.713Z,68.17
2022-08-23T11:55:02.101Z,68.20
2022-08-23T11:57:46.747Z,68.34
2022-08-23T12:00:29.072Z,68.28
2022-08-23T12:03:04.205Z,68.25
2022-08-23T12:06:39.254Z,68.18
2022-08-23T12:09:21.916Z,67.74
2022-08-23T12:12:25.248Z,67.61
2022-08-23T12:14:56.307Z,67.67
2022-08-23T12:18:00.936Z,67.42
2022-08-23T12:20:31.638Z,67.26
2022-08-23T12:23:12.161Z,66.77
2022-08-23T12:25:41.426Z,65.76
2022-08-23T12:28:32.747Z,65.27
2022-08-23T12:31:14.224Z,65.93
2022-08-23T12:33:52.597Z,65.61
2022-08-23T12:36:40.209Z,65.48
2022-08-23T12:39:21.674Z,65.57
2022-08-23T12:41:55.193Z,65.77
2022-08-23T12:44:25.726Z,65.70
2022-08-23T12:46:54.718Z,65.74
2022-08-23T12:49:30.153Z,65.81
2022-08-23T12:52:00.369Z,65.84
2022-08-23T12:54:37.785Z,65.80
2022-08-23T12:57:10.945Z,66.26
2022-08-23T12:59:46.841Z,66.39
2022-08-23T13:02:23.406Z,64.95
2022-08-23T13:04:53.078Z,63.88
2022-08-23T13:07:22.967Z,63.88
2022-08-23T13:09:53.124Z,63.59
2022-08-23T13:12:22.827Z,63.09
2022-08-23T13:14:53.232Z,63.28
2022-08-23T13:17:31.328Z,62.74
2022-08-23T13:20:21.706Z,62.43
2022-08-23T13:23:05.157Z,62.28
2022-08-23T13:25:36.389Z,62.50
2022-08-23T13:28:07.253Z,62.60
2022-08-23T13:30:38.395Z,62.47
2022-08-23T13:33:21.614Z,62.03
2022-08-23T13:35:52.719Z,62.33
2022-08-23T13:38:31.510Z,61.74
2022-08-23T13:41:02.831Z,61.58
2022-08-23T13:43:35.700Z,61.31
2022-08-23T13:46:14.298Z,62.30
2022-08-23T13:48:49.049Z,62.18
2022-08-23T13:51:30.344Z,61.38
2022-08-23T13:54:01.740Z,61.55
2022-08-23T13:56:33.918Z,61.34
2022-08-23T13:59:05.168Z,60.66
2022-08-23T14:01:33.705Z,60.89
2022-08-23T14:04:02.082Z,60.57
2022-08-23T14:06:30.249Z,60.70
2022-08-23T14:08:58.568Z,60.86
2022-08-23T14:11:26.751Z,60.87
2022-08-23T14:13:55.061Z,60.96
2022-08-23T14:16:39.246Z,60.89
2022-08-23T14:19:54.332Z,60.41
2022-08-23T14:21:58.655Z,59.97
2022-08-23T14:24:27.650Z,60.17
2022-08-23T14:26:56.744Z,60.12
2022-08-23T14:29:27.546Z,60.19
2022-08-23T14:31:57.452Z,59.94
2022-08-23T14:34:26.178Z,60.02
2022-08-23T14:39:43.047Z,60.45
2022-08-23T14:42:16.672Z,60.60
2022-08-23T14:44:44.866Z,60.43
2022-08-23T14:47:13.219Z,60.59
2022-08-23T14:49:41.386Z,60.31
2022-08-23T14:52:13.229Z,60.73
2022-08-23T14:54:44.914Z,60.55
2022-08-23T14:57:13.018Z,60.25
2022-08-23T14:59:41.278Z,59.75
2022-08-23T15:02:13.106Z,59.91
2022-08-23T15:04:41.970Z,60.32
2022-08-23T15:07:18.094Z,60.33
2022-08-23T15:09:53.846Z,61.23
2022-08-23T15:15:15.664Z,60.66
2022-08-23T15:17:51.910Z,60.95
2022-08-23T15:20:21.439Z,60.92
2022-08-23T15:22:52.370Z,60.19
2022-08-23T15:25:29.473Z,60.22
2022-08-23T15:27:59.641Z,60.38
2022-08-23T15:30:30.305Z,60.27
2022-08-23T15:33:03.927Z,60.76
2022-08-23T15:35:38.393Z,61.08
2022-08-23T15:38:09.833Z,60.96
2022-08-23T15:40:39.845Z,60.99
2022-08-23T15:43:09.235Z,60.33
2022-08-23T15:45:40.961Z,59.37
2022-08-23T15:48:24.426Z,59.32
2022-08-23T15:50:53.586Z,59.39
2022-08-23T15:53:22.630Z,59.28
2022-08-23T15:55:52.381Z,59.73
2022-08-23T15:58:24.216Z,59.81
2022-08-23T16:00:54.449Z,59.79
2022-08-23T16:03:25.341Z,60.09
2022-08-23T16:05:55.021Z,60.50
2022-08-23T16:08:26.974Z,61.02
2022-08-23T16:10:56.489Z,61.38
2022-08-23T16:13:26.294Z,61.72
2022-08-23T16:15:55.037Z,62.26
2022-08-23T16:18:23.984Z,62.59
2022-08-23T16:20:54.248Z,63.25
2022-08-23T16:23:25.810Z,63.35
2022-08-23T16:25:59.118Z,63.83
2022-08-23T16:28:29.805Z,64.57
2022-08-23T16:30:58.810Z,64.73
2022-08-23T16:33:27.877Z,64.99
2022-08-23T16:35:56.777Z,65.46
2022-08-23T16:38:25.388Z,66.14
2022-08-23T16:40:54.537Z,66.47
2022-08-23T16:43:23.543Z,66.72
2022-08-23T16:45:52.423Z,67.24
2022-08-23T16:48:21.783Z,67.52
2022-08-23T16:50:50.078Z,67.71
2022-08-23T16:53:18.788Z,67.79
2022-08-23T16:55:47.279Z,67.84
2022-08-23T16:58:15.537Z,67.91
2022-08-23T17:00:43.756Z,67.98
2022-08-23T17:03:14.788Z,68.17
2022-08-23T17:05:42.924Z,68.16
2022-08-23T17:08:11.276Z,68.34
2022-08-23T17:10:39.700Z,68.67
2022-08-23T17:13:08.807Z,68.84
2022-08-23T17:15:37.772Z,69.09
2022-08-23T17:18:06.373Z,69.28
2022-08-23T17:20:37.199Z,69.23
2022-08-23T17:23:05.670Z,69.34
2022-08-23T17:25:34.572Z,69.57
2022-08-23T17:28:03.732Z,69.76
2022-08-23T17:30:31.982Z,69.75
2022-08-23T17:33:00.130Z,70.07
2022-08-23T17:35:34.259Z,70.41
2022-08-23T17:38:04.952Z,70.74
2022-08-23T17:40:35.603Z,70.74
2022-08-23T17:43:04.896Z,70.75
2022-08-23T17:45:42.747Z,70.72
2022-08-23T17:48:14.563Z,70.87
2022-08-23T17:50:43.676Z,70.86
2022-08-23T17:53:13.438Z,71.15
2022-08-23T17:55:42.991Z,71.21
2022-08-23T17:58:11.351Z,71.03
2022-08-23T18:00:40.312Z,71.12
2022-08-23T18:03:08.512Z,71.58
2022-08-23T18:05:40.355Z,71.59
2022-08-23T18:08:10.175Z,71.87
2022-08-23T18:10:39.004Z,72.09
2022-08-23T18:13:07.362Z,72.12
2022-08-23T18:15:36.947Z,72.52
2022-08-23T18:18:05.809Z,72.54
2022-08-23T18:20:34.327Z,72.39
2022-08-23T18:23:03.333Z,72.77
2022-08-23T18:25:45.293Z,72.60
2022-08-23T18:28:14.344Z,72.46
2022-08-23T18:31:37.494Z,72.48
2022-08-23T18:34:31.331Z,72.80
2022-08-23T18:37:02.483Z,73.05
2022-08-23T18:39:32.196Z,73.12
2022-08-23T18:42:01.465Z,73.29
2022-08-23T18:44:30.041Z,73.09
2022-08-23T18:58:38.821Z,71.07
2022-08-23T19:01:27.121Z,71.05
2022-08-23T19:04:01.043Z,71.56
2022-08-23T19:06:34.356Z,71.83
2022-08-23T19:09:07.141Z,72.36
2022-08-23T19:11:39.649Z,72.76
2022-08-23T19:14:12.981Z,72.94
2022-08-23T19:16:48.577Z,73.05
2022-08-23T19:19:20.836Z,73.42
2022-08-23T19:21:52.571Z,73.76
2022-08-23T19:24:24.766Z,73.90
2022-08-23T19:26:57.346Z,74.21
2022-08-23T19:29:29.097Z,74.60
2022-08-23T19:32:03.967Z,74.92
2022-08-23T19:34:35.853Z,75.02
2022-08-23T19:37:10.781Z,75.32
2022-08-23T19:39:54.987Z,75.75
2022-08-23T19:42:27.959Z,75.67
2022-08-23T19:45:08.728Z,75.95
2022-08-23T19:47:40.961Z,75.92
2022-08-23T19:50:13.521Z,75.83
2022-08-23T19:52:45.183Z,76.08
2022-08-23T19:55:17.845Z,76.19
2022-08-23T19:57:58.512Z,76.27
2022-08-23T20:00:31.623Z,76.51
2022-08-23T20:03:03.557Z,76.56
2022-08-23T20:05:35.464Z,76.79
2022-08-23T20:08:09.580Z,76.90
2022-08-23T20:10:44.901Z,76.76
2022-08-23T20:13:16.420Z,76.68
2022-08-23T20:15:48.112Z,76.62
2022-08-23T20:18:22.388Z,76.79
2022-08-23T20:20:55.094Z,76.75
2022-08-23T20:23:44.552Z,76.79
2022-08-23T20:26:16.076Z,77.07
2022-08-23T20:28:59.218Z,77.00
2022-08-23T20:31:35.147Z,76.98
2022-08-23T20:34:08.853Z,76.72
2022-08-23T20:36:43.405Z,76.80
2022-08-23T20:39:24.151Z,76.81
2022-08-23T20:41:58.088Z,77.18
2022-08-23T20:44:30.216Z,77.18
2022-08-23T20:47:03.789Z,77.34
2022-08-23T20:49:35.606Z,77.37
2022-08-23T20:52:08.317Z,77.38
2022-08-23T20:54:40.233Z,77.35
2022-08-23T20:57:11.956Z,77.54
2022-08-23T20:59:44.908Z,77.63
2022-08-23T21:02:19.272Z,77.73
2022-08-23T21:04:51.197Z,77.77
2022-08-23T21:07:22.726Z,77.79
2022-08-23T21:09:58.295Z,77.85
2022-08-23T21:12:29.907Z,77.87
2022-08-23T21:15:01.548Z,77.76
2022-08-23T21:17:34.119Z,77.75
2022-08-23T21:20:07.962Z,77.94
2022-08-23T21:22:39.736Z,78.07
2022-08-23T21:25:13.374Z,78.07
2022-08-23T21:27:44.925Z,78.12
2022-08-23T21:30:17.753Z,78.26
2022-08-23T21:32:49.580Z,77.98
2022-08-23T21:35:21.553Z,78.14
2022-08-23T21:37:53.324Z,77.77
2022-08-23T21:40:25.095Z,78.11
2022-08-23T21:42:57.765Z,77.92
2022-08-23T21:45:29.664Z,78.34
2022-08-23T21:48:02.830Z,78.33
2022-08-23T21:50:34.525Z,77.97
2022-08-23T21:53:06.247Z,77.88
2022-08-23T21:55:39.263Z,78.06
2022-08-23T21:58:12.826Z,77.85
2022-08-23T22:00:45.657Z,77.97
2022-08-23T22:03:17.284Z,77.89
2022-08-23T22:05:49.181Z,78.06
2022-08-23T22:08:20.801Z,78.16
2022-08-23T22:10:57.679Z,78.60
2022-08-23T22:13:30.716Z,78.55
2022-08-23T22:16:02.830Z,78.32
2022-08-23T22:18:35.113Z,78.23
2022-08-23T22:21:07.379Z,78.54
2022-08-23T22:23:43.349Z,78.54
2022-08-23T22:26:15.746Z,78.20
2022-08-23T22:28:47.907Z,78.31
2022-08-23T22:31:20.071Z,78.34
2022-08-23T22:33:52.861Z,78.51
2022-08-23T22:36:26.026Z,78.49
2022-08-23T22:38:58.187Z,78.48
2022-08-23T22:41:31.702Z,78.37
2022-08-23T22:44:05.869Z,78.55
2022-08-23T22:46:37.534Z,78.56
2022-08-23T22:49:09.985Z,78.66
2022-08-23T22:51:43.084Z,78.77
2022-08-23T22:54:15.461Z,79.03
2022-08-23T22:56:52.907Z,78.79
2022-08-23T22:59:27.692Z,78.77
2022-08-23T23:02:05.074Z,79.20
2022-08-23T23:04:37.157Z,79.17
2022-08-23T23:07:08.856Z,79.29
2022-08-23T23:09:43.720Z,79.54
2022-08-23T23:12:15.405Z,79.45
2022-08-23T23:14:47.551Z,79.46
2022-08-23T23:17:19.191Z,79.47
2022-08-23T23:20:08.427Z,79.48
2022-08-23T23:22:40.177Z,79.52
2022-08-23T23:25:11.914Z,79.80
2022-08-23T23:27:45.172Z,79.92
2022-08-23T23:30:19.684Z,79.81
2022-08-23T23:32:51.809Z,79.71
2022-08-23T23:35:23.575Z,80.13
2022-08-23T23:37:55.202Z,80.07
2022-08-23T23:40:27.718Z,80.11
2022-08-23T23:42:59.602Z,80.11
2022-08-23T23:45:31.909Z,79.73
2022-08-23T23:48:04.131Z,79.96
2022-08-23T23:50:46.869Z,80.02
2022-08-23T23:53:18.776Z,80.03
2022-08-23T23:55:50.465Z,80.42
2022-08-23T23:58:22.524Z,80.25
